Time;durP1;ratioP1;P1;durP2;ratioP2;P2;SDS_P1;SDS_P2;PMS_P1;PMS_P2;Temp;Humidity;BMP_temperature;BMP_pressure;BME280_temperature;BME280_humidity;BME280_pressure;Samples;Min_cycle;Max_cycle;Signal;HPM_P1;HPM_P2
2021/11/30 00:02:22;;;;;;;7.90;3.38;;;24.20;99.90;;;;;;5046910;28;20076;-75
2021/11/30 00:04:49;;;;;;;14.18;4.90;;;24.30;99.90;;;;;;5037258;28;20040;-77
2021/11/30 00:07:17;;;;;;;8.50;3.70;;;24.30;99.90;;;;;;5049392;28;20033;-75
2021/11/30 00:12:19;;;;;;;5.85;3.03;;;24.40;99.90;;;;;;5046196;28;20028;-77
2021/11/30 00:14:49;;;;;;;7.00;3.03;;;24.40;99.90;;;;;;5042504;28;20473;-76
2021/11/30 00:17:18;;;;;;;11.35;3.58;;;24.50;99.90;;;;;;5041681;28;20469;-76
2021/11/30 00:19:47;;;;;;;8.82;3.35;;;24.60;99.90;;;;;;5043522;28;20545;-76
2021/11/30 00:22:18;;;;;;;11.73;3.42;;;24.60;99.90;;;;;;5039963;28;20043;-77
2021/11/30 00:24:45;;;;;;;6.57;4.43;;;24.50;99.90;;;;;;5040139;28;20127;-76
2021/11/30 00:27:13;;;;;;;7.47;3.13;;;24.50;99.90;;;;;;5042576;28;20033;-77
2021/11/30 00:29:41;;;;;;;10.18;3.33;;;24.50;99.90;;;;;;5047103;28;20091;-77
2021/11/30 00:32:09;;;;;;;16.02;4.28;;;24.60;99.90;;;;;;5044848;28;20049;-77
2021/11/30 00:34:37;;;;;;;10.15;3.65;;;24.60;99.90;;;;;;5046541;28;20430;-78
2021/11/30 00:37:05;;;;;;;10.73;4.00;;;24.50;99.90;;;;;;5052333;28;20029;-75
2021/11/30 00:39:32;;;;;;;9.15;4.82;;;24.50;99.90;;;;;;5050610;28;20352;-75
2021/11/30 00:42:01;;;;;;;7.65;4.00;;;24.50;99.90;;;;;;5049951;28;20033;-76
2021/11/30 00:44:33;;;;;;;12.18;4.13;;;24.50;99.90;;;;;;5051867;28;20037;-76
2021/11/30 00:47:00;;;;;;;12.68;4.28;;;24.50;99.90;;;;;;5042124;28;20079;-77
2021/11/30 00:49:28;;;;;;;66.20;18.70;;;24.40;99.90;;;;;;5039000;28;20626;-82
2021/11/30 00:52:00;;;;;;;61.35;20.00;;;24.40;99.90;;;;;;5043889;28;20083;-78
2021/11/30 00:54:29;;;;;;;37.88;11.07;;;24.50;99.90;;;;;;5051443;28;20059;-80
2021/11/30 00:56:57;;;;;;;61.83;27.85;;;24.50;99.90;;;;;;5050124;28;20079;-79
2021/11/30 00:59:28;;;;;;;10.98;6.80;;;24.70;99.90;;;;;;5043135;28;20097;-82
2021/11/30 01:01:58;;;;;;;25.77;7.82;;;24.70;99.90;;;;;;5043686;28;20079;-75
2021/11/30 01:04:26;;;;;;;11.95;6.18;;;24.70;99.90;;;;;;5045717;28;20037;-78
2021/11/30 01:06:54;;;;;;;9.20;4.47;;;24.90;99.90;;;;;;5046457;28;20014;-77
2021/11/30 01:09:22;;;;;;;11.20;5.07;;;25.00;99.90;;;;;;5044346;28;20063;-79
2021/11/30 01:11:49;;;;;;;12.65;6.35;;;25.30;99.90;;;;;;5052178;28;20077;-76
2021/11/30 01:14:17;;;;;;;8.15;5.15;;;25.80;99.90;;;;;;5053695;28;20035;-82
2021/11/30 01:16:44;;;;;;;8.07;5.43;;;25.90;99.90;;;;;;5054519;28;20040;-85
2021/11/30 01:19:12;;;;;;;13.20;5.95;;;25.90;99.90;;;;;;5055547;28;20626;-80
2021/11/30 01:21:40;;;;;;;10.38;5.50;;;26.00;99.90;;;;;;5050140;28;20522;-81
2021/11/30 01:24:08;;;;;;;9.85;4.25;;;26.00;99.90;;;;;;5060797;28;20041;-80
2021/11/30 01:26:37;;;;;;;8.18;5.18;;;25.90;99.90;;;;;;5064600;28;20045;-82
2021/11/30 01:29:05;;;;;;;15.23;6.32;;;26.00;99.90;;;;;;5063383;28;20135;-82
2021/11/30 01:31:33;;;;;;;17.50;5.88;;;25.80;99.90;;;;;;5063483;28;20057;-84
2021/11/30 01:34:01;;;;;;;17.45;6.80;;;25.40;99.90;;;;;;5049960;28;20091;-87
2021/11/30 01:36:29;;;;;;;12.30;5.90;;;25.20;99.90;;;;;;5054213;28;20116;-84
2021/11/30 01:38:59;;;;;;;10.27;5.43;;;25.10;99.90;;;;;;5054937;28;20025;-79
2021/11/30 01:41:28;;;;;;;14.93;6.40;;;25.00;99.90;;;;;;5054112;28;20021;-86
2021/11/30 01:43:58;;;;;;;9.68;5.70;;;25.00;99.90;;;;;;5044943;28;20035;-82
2021/11/30 01:46:39;;;;;;;14.40;7.07;;;24.90;99.90;;;;;;5049225;28;20021;-83
2021/11/30 01:49:23;;;;;;;11.30;5.72;;;24.90;99.90;;;;;;5047189;28;20065;-83
2021/11/30 01:51:51;;;;;;;10.60;5.20;;;25.10;99.90;;;;;;5041419;28;20079;-81
2021/11/30 01:54:19;;;;;;;10.55;6.05;;;25.20;99.90;;;;;;5048804;28;20056;-81
2021/11/30 01:56:46;;;;;;;10.77;4.97;;;25.30;99.90;;;;;;5047764;28;20415;-84
2021/11/30 01:59:14;;;;;;;10.82;5.35;;;25.60;99.90;;;;;;5050868;28;20075;-83
2021/11/30 02:01:41;;;;;;;9.35;5.35;;;25.90;99.90;;;;;;5044848;28;20481;-78
2021/11/30 02:04:09;;;;;;;12.50;6.25;;;26.00;99.90;;;;;;5049382;28;20711;-83
2021/11/30 02:06:36;;;;;;;9.48;4.75;;;25.90;99.90;;;;;;5050845;28;20047;-80
2021/11/30 02:09:04;;;;;;;7.97;4.85;;;25.60;99.90;;;;;;5038206;28;20025;-78
2021/11/30 02:11:32;;;;;;;7.97;5.00;;;25.40;99.90;;;;;;5061162;28;20104;-78
2021/11/30 02:13:59;;;;;;;10.77;4.95;;;25.00;99.90;;;;;;5040237;28;20061;-86
2021/11/30 02:16:26;;;;;;;11.02;4.75;;;24.90;99.90;;;;;;5049564;28;20036;-86
2021/11/30 02:18:55;;;;;;;12.30;5.82;;;24.90;99.90;;;;;;5039771;28;20519;-77
2021/11/30 02:21:24;;;;;;;10.55;4.93;;;24.90;99.90;;;;;;5047777;28;20380;-76
2021/11/30 02:23:59;;;;;;;12.15;6.43;;;24.90;99.90;;;;;;5046768;28;20045;-75
2021/11/30 02:26:31;;;;;;;9.30;5.35;;;24.70;99.90;;;;;;5049680;28;20032;-74
2021/11/30 02:28:59;;;;;;;11.45;5.63;;;24.60;99.90;;;;;;5046890;28;20035;-78
2021/11/30 02:31:29;;;;;;;11.73;5.43;;;24.50;99.90;;;;;;5048508;28;20037;-76
2021/11/30 02:33:57;;;;;;;8.10;4.25;;;24.30;99.90;;;;;;5047170;28;20037;-75
2021/11/30 02:39:14;;;;;;;13.63;5.15;;;24.30;99.90;;;;;;5033225;28;20032;-78
2021/11/30 02:41:43;;;;;;;11.38;5.10;;;24.20;99.90;;;;;;5037047;28;20033;-74
2021/11/30 02:44:14;;;;;;;11.48;5.28;;;24.10;99.90;;;;;;5039243;28;20067;-75
2021/11/30 02:46:45;;;;;;;11.20;5.78;;;24.10;99.90;;;;;;5048097;28;20392;-73
2021/11/30 02:49:16;;;;;;;7.32;4.72;;;24.20;99.90;;;;;;5042754;28;20064;-76
2021/11/30 02:51:46;;;;;;;9.73;5.25;;;24.40;99.90;;;;;;5038410;28;20040;-83
2021/11/30 02:54:19;;;;;;;16.77;6.00;;;24.60;99.90;;;;;;5050439;28;20063;-80
2021/11/30 02:56:53;;;;;;;11.85;4.60;;;24.80;99.90;;;;;;5047234;28;20082;-77
2021/11/30 02:59:23;;;;;;;10.02;4.72;;;24.70;99.90;;;;;;5048994;28;20028;-80
2021/11/30 03:02:02;;;;;;;8.05;4.88;;;24.70;99.90;;;;;;5044450;28;20051;-76
2021/11/30 03:04:30;;;;;;;9.02;4.65;;;24.70;99.90;;;;;;5048291;28;20033;-75
2021/11/30 03:06:58;;;;;;;12.75;4.93;;;24.70;99.90;;;;;;5048580;28;20037;-78
2021/11/30 03:09:26;;;;;;;12.55;4.63;;;24.60;99.90;;;;;;5046739;28;20507;-76
2021/11/30 03:11:55;;;;;;;11.15;5.20;;;24.50;99.90;;;;;;5041731;28;20078;-80
2021/11/30 03:14:27;;;;;;;12.77;5.88;;;24.30;99.90;;;;;;5048550;28;20138;-78
2021/11/30 03:16:55;;;;;;;8.55;4.65;;;24.30;99.90;;;;;;5048534;28;20112;-76
2021/11/30 03:19:23;;;;;;;8.15;4.00;;;24.30;99.90;;;;;;5051214;28;20028;-79
2021/11/30 03:21:52;;;;;;;8.77;4.18;;;24.30;99.90;;;;;;5053519;28;20025;-78
2021/11/30 03:24:19;;;;;;;7.28;3.55;;;24.30;99.90;;;;;;5047072;28;20446;-79
2021/11/30 03:26:47;;;;;;;9.15;4.22;;;24.20;99.90;;;;;;5050476;28;20353;-79
2021/11/30 03:29:15;;;;;;;8.30;2.60;;;24.10;99.90;;;;;;5046047;28;20017;-76
2021/11/30 03:34:15;;;;;;;6.88;3.38;;;24.10;99.90;;;;;;5052583;28;20025;-79
2021/11/30 03:36:45;;;;;;;7.03;3.08;;;24.10;99.90;;;;;;5048273;28;20082;-74
2021/11/30 03:39:18;;;;;;;9.77;3.10;;;24.10;99.90;;;;;;5052966;28;20037;-75
2021/11/30 03:41:47;;;;;;;3.47;2.13;;;24.10;99.90;;;;;;5050075;28;20025;-75
2021/11/30 03:44:15;;;;;;;3.65;2.10;;;24.20;99.90;;;;;;5043587;28;20483;-75
2021/11/30 03:46:42;;;;;;;4.63;2.05;;;24.30;99.90;;;;;;5040368;28;20031;-76
2021/11/30 03:49:11;;;;;;;4.85;1.60;;;24.40;99.90;;;;;;5042706;28;20095;-74
2021/11/30 03:51:40;;;;;;;3.47;1.90;;;24.60;99.90;;;;;;5051469;28;20530;-76
2021/11/30 03:54:08;;;;;;;5.68;1.65;;;24.80;99.90;;;;;;5050655;28;20041;-73
2021/11/30 03:56:36;;;;;;;7.40;2.40;;;24.90;99.90;;;;;;5046954;28;20021;-84
2021/11/30 03:59:04;;;;;;;7.18;2.00;;;25.00;99.90;;;;;;5045353;28;20029;-78
2021/11/30 04:01:32;;;;;;;2.60;1.58;;;25.20;99.90;;;;;;5051641;28;20401;-78
2021/11/30 04:04:01;;;;;;;3.15;1.60;;;25.30;99.90;;;;;;5054352;28;20048;-79
2021/11/30 04:06:28;;;;;;;4.60;2.42;;;25.40;99.90;;;;;;5051468;28;20057;-77
2021/11/30 04:08:55;;;;;;;4.32;1.48;;;25.50;99.90;;;;;;5033258;28;20029;-77
2021/11/30 04:11:24;;;;;;;7.22;1.88;;;25.60;99.90;;;;;;5053689;28;20032;-77
2021/11/30 04:13:53;;;;;;;3.63;1.58;;;25.80;99.90;;;;;;5053905;28;20040;-77
2021/11/30 04:16:20;;;;;;;2.78;1.42;;;25.90;99.90;;;;;;5051422;28;20025;-77
2021/11/30 04:18:47;;;;;;;5.47;1.95;;;25.90;99.90;;;;;;5062923;28;20119;-80
2021/11/30 04:21:15;;;;;;;3.80;2.03;;;26.00;99.90;;;;;;5051517;28;20025;-77
2021/11/30 04:23:42;;;;;;;3.95;1.60;;;26.10;99.90;;;;;;5051734;28;20689;-77
2021/11/30 04:26:09;;;;;;;8.30;1.52;;;26.00;99.90;;;;;;5051958;28;20036;-77
2021/11/30 04:28:39;;;;;;;3.83;1.80;;;25.90;99.90;;;;;;5051574;28;20028;-79
2021/11/30 04:31:06;;;;;;;2.70;1.20;;;25.80;99.90;;;;;;5045891;28;20113;-75
2021/11/30 04:33:34;;;;;;;3.50;1.60;;;25.60;99.90;;;;;;5048976;28;20028;-80
2021/11/30 04:36:01;;;;;;;4.43;1.10;;;25.50;99.90;;;;;;5048348;28;20062;-78
2021/11/30 04:38:29;;;;;;;2.58;1.65;;;25.50;99.90;;;;;;5051235;28;20510;-79
2021/11/30 04:40:56;;;;;;;2.80;1.58;;;25.40;99.90;;;;;;5049731;28;20025;-76
2021/11/30 04:43:24;;;;;;;2.78;1.02;;;25.20;99.90;;;;;;5051160;28;20029;-76
2021/11/30 04:45:56;;;;;;;5.88;1.48;;;25.00;99.90;;;;;;5045881;28;20028;-77
2021/11/30 04:48:25;;;;;;;1.17;0.80;;;24.90;99.90;;;;;;5050984;28;20030;-76
2021/11/30 04:50:55;;;;;;;2.55;0.80;;;24.80;99.90;;;;;;5040695;28;20036;-81
2021/11/30 04:53:25;;;;;;;2.97;1.25;;;24.70;99.90;;;;;;5039527;28;20036;-77
2021/11/30 04:55:53;;;;;;;1.23;1.05;;;24.70;99.90;;;;;;5050334;28;20021;-79
2021/11/30 04:58:21;;;;;;;2.92;1.63;;;24.50;99.90;;;;;;5051051;28;20061;-77
2021/11/30 05:00:49;;;;;;;3.60;1.80;;;24.50;99.90;;;;;;5046681;28;20114;-78
2021/11/30 05:03:17;;;;;;;3.08;1.00;;;24.50;99.90;;;;;;5050382;28;20097;-80
2021/11/30 05:05:45;;;;;;;4.28;1.83;;;24.50;99.90;;;;;;5048056;28;20114;-76
2021/11/30 05:08:12;;;;;;;3.30;1.33;;;24.40;99.90;;;;;;5048983;28;20029;-77
2021/11/30 05:10:40;;;;;;;2.10;1.10;;;24.40;99.90;;;;;;5046669;28;20389;-80
2021/11/30 05:13:07;;;;;;;4.13;1.38;;;24.40;99.90;;;;;;5047984;28;20029;-83
2021/11/30 05:15:35;;;;;;;3.17;1.13;;;24.40;99.90;;;;;;5049550;28;20068;-78
2021/11/30 05:18:03;;;;;;;5.53;1.90;;;24.40;99.90;;;;;;5047572;28;20388;-77
2021/11/30 05:20:31;;;;;;;3.10;1.30;;;24.50;99.90;;;;;;5048073;28;20142;-76
2021/11/30 05:22:58;;;;;;;3.08;1.25;;;24.40;99.90;;;;;;5050822;28;20033;-76
2021/11/30 05:25:37;;;;;;;3.67;1.52;;;24.40;99.90;;;;;;5051173;28;20016;-76
2021/11/30 05:28:06;;;;;;;2.22;1.30;;;24.30;99.90;;;;;;5062427;28;20810;-80
2021/11/30 05:30:38;;;;;;;4.68;1.98;;;24.30;99.90;;;;;;5058183;28;20049;-76
2021/11/30 05:33:10;;;;;;;2.40;1.35;;;24.20;99.90;;;;;;5054376;28;20043;-81
2021/11/30 05:35:38;;;;;;;2.08;1.58;;;24.10;99.90;;;;;;5041600;28;20230;-78
2021/11/30 05:38:06;;;;;;;4.45;2.10;;;24.00;99.90;;;;;;5047396;28;20091;-80
2021/11/30 05:40:33;;;;;;;1.70;1.27;;;23.90;99.90;;;;;;5049281;28;20032;-80
2021/11/30 05:43:01;;;;;;;2.88;1.48;;;23.90;99.90;;;;;;5049780;28;20143;-80
2021/11/30 05:45:28;;;;;;;2.85;1.08;;;24.00;99.90;;;;;;5049301;28;20041;-78
2021/11/30 05:47:56;;;;;;;2.38;1.23;;;24.00;99.90;;;;;;5049800;28;20025;-77
2021/11/30 05:50:24;;;;;;;2.42;1.63;;;24.00;99.90;;;;;;5048838;28;20025;-77
2021/11/30 05:52:51;;;;;;;2.45;1.40;;;23.80;99.90;;;;;;5044214;28;20020;-76
2021/11/30 05:55:19;;;;;;;2.28;1.00;;;23.80;99.90;;;;;;5038572;28;20341;-77
2021/11/30 05:57:46;;;;;;;1.75;1.10;;;23.80;99.90;;;;;;5047541;28;20025;-76
2021/11/30 06:00:16;;;;;;;3.55;1.15;;;23.80;99.90;;;;;;5046042;28;20104;-78
2021/11/30 06:02:56;;;;;;;3.20;1.10;;;23.90;99.90;;;;;;5045179;28;20377;-79
2021/11/30 06:05:25;;;;;;;1.38;0.82;;;23.90;99.90;;;;;;5048638;28;20086;-79
2021/11/30 06:07:53;;;;;;;1.65;1.40;;;24.00;99.90;;;;;;5047342;28;20025;-76
2021/11/30 06:10:20;;;;;;;2.60;0.88;;;24.00;99.90;;;;;;5046680;28;20071;-78
2021/11/30 06:12:48;;;;;;;1.45;0.77;;;24.10;99.90;;;;;;5050335;28;20033;-75
2021/11/30 06:15:16;;;;;;;5.03;1.83;;;24.10;99.90;;;;;;5043868;28;20074;-77
2021/11/30 06:17:43;;;;;;;3.58;0.98;;;24.10;99.90;;;;;;5047110;28;20411;-76
2021/11/30 06:20:12;;;;;;;2.45;1.10;;;24.10;99.90;;;;;;5047465;28;20078;-75
2021/11/30 06:22:40;;;;;;;1.20;0.70;;;24.10;99.90;;;;;;5045618;28;20029;-76
2021/11/30 06:25:09;;;;;;;2.30;0.88;;;24.10;99.90;;;;;;5044102;28;20086;-75
2021/11/30 06:27:36;;;;;;;2.75;0.95;;;24.20;99.90;;;;;;5050295;28;21066;-78
2021/11/30 06:30:05;;;;;;;1.88;0.88;;;24.10;99.90;;;;;;5061681;28;20116;-77
2021/11/30 06:32:33;;;;;;;4.25;1.05;;;24.10;99.90;;;;;;5049227;28;20029;-79
2021/11/30 06:35:02;;;;;;;1.45;0.90;;;24.00;99.90;;;;;;5050612;28;20508;-77
2021/11/30 06:37:29;;;;;;;1.60;1.10;;;24.00;99.90;;;;;;5047465;28;20036;-78
2021/11/30 06:39:57;;;;;;;1.30;0.88;;;23.90;99.90;;;;;;5035550;28;20345;-77
2021/11/30 06:42:26;;;;;;;1.13;0.75;;;23.80;99.90;;;;;;5049216;28;20392;-77
2021/11/30 06:44:53;;;;;;;0.80;0.60;;;23.80;99.90;;;;;;5043734;28;20037;-76
2021/11/30 06:47:21;;;;;;;1.52;0.80;;;23.70;99.90;;;;;;5046030;28;20237;-79
2021/11/30 06:49:48;;;;;;;2.40;1.20;;;23.70;99.90;;;;;;5037944;28;20029;-75
2021/11/30 06:52:16;;;;;;;1.48;0.88;;;23.70;99.90;;;;;;5044283;28;20036;-76
2021/11/30 06:54:45;;;;;;;3.40;1.00;;;23.70;99.90;;;;;;5049306;28;20151;-79
2021/11/30 06:57:13;;;;;;;1.30;0.68;;;23.70;99.90;;;;;;5048489;28;20028;-75
2021/11/30 06:59:41;;;;;;;1.70;0.77;;;23.70;99.90;;;;;;5038783;28;20162;-75
2021/11/30 07:02:09;;;;;;;1.98;0.90;;;23.70;99.90;;;;;;5042665;28;20041;-77
2021/11/30 07:04:41;;;;;;;1.90;1.10;;;23.70;99.90;;;;;;5034187;28;20045;-76
2021/11/30 07:07:21;;;;;;;1.00;0.68;;;23.60;99.90;;;;;;5049355;28;20028;-77
2021/11/30 07:14:53;;;;;;;1.88;0.90;;;23.40;99.90;;;;;;5048893;28;20017;-78
2021/11/30 07:17:20;;;;;;;1.38;0.80;;;23.40;99.90;;;;;;5049722;28;20040;-75
2021/11/30 07:19:47;;;;;;;0.73;0.57;;;23.30;99.90;;;;;;5050459;28;20102;-77
2021/11/30 07:22:15;;;;;;;1.50;0.60;;;23.30;99.90;;;;;;5050333;28;20033;-77
2021/11/30 07:24:44;;;;;;;1.50;0.63;;;23.30;99.90;;;;;;5048274;28;20033;-76
2021/11/30 07:27:12;;;;;;;2.92;0.93;;;23.20;99.90;;;;;;5047089;28;20033;-76
2021/11/30 07:29:39;;;;;;;2.25;0.50;;;23.20;99.90;;;;;;5047432;28;20230;-76
2021/11/30 07:32:08;;;;;;;2.85;0.68;;;23.20;99.90;;;;;;5048918;28;20510;-78
2021/11/30 07:34:36;;;;;;;3.03;1.00;;;23.20;99.90;;;;;;5051308;28;20106;-77
2021/11/30 07:37:03;;;;;;;1.63;1.08;;;23.20;99.90;;;;;;5049362;28;20368;-78
2021/11/30 07:39:32;;;;;;;1.25;1.05;;;23.20;99.90;;;;;;5050999;28;20040;-77
2021/11/30 07:42:00;;;;;;;1.20;0.85;;;23.20;99.90;;;;;;5050190;28;20032;-77
2021/11/30 07:44:28;;;;;;;1.98;0.90;;;23.20;99.90;;;;;;5049741;28;20065;-76
2021/11/30 07:46:56;;;;;;;2.45;1.20;;;23.10;99.90;;;;;;5049565;28;20033;-75
2021/11/30 07:49:23;;;;;;;8.48;4.82;;;23.10;99.90;;;;;;5048364;28;20443;-76
2021/11/30 07:51:51;;;;;;;2.58;1.88;;;23.00;99.90;;;;;;5047786;28;20028;-76
2021/11/30 07:54:19;;;;;;;1.42;0.95;;;23.00;99.90;;;;;;5050773;28;20475;-76
2021/11/30 07:56:48;;;;;;;0.93;0.75;;;23.00;99.90;;;;;;5045116;28;20040;-77
2021/11/30 07:59:18;;;;;;;2.28;0.90;;;23.00;99.90;;;;;;5047563;28;20029;-76
2021/11/30 08:01:46;;;;;;;3.28;0.80;;;23.00;99.90;;;;;;5044824;28;20048;-75
2021/11/30 08:04:13;;;;;;;2.20;0.80;;;23.10;99.90;;;;;;5048146;28;20033;-75
2021/11/30 08:06:40;;;;;;;2.50;0.98;;;23.10;99.90;;;;;;5051814;28;20115;-76
2021/11/30 08:09:08;;;;;;;3.78;0.77;;;23.10;99.90;;;;;;5048056;28;20388;-76
2021/11/30 08:11:35;;;;;;;3.72;1.02;;;23.00;99.90;;;;;;5047843;28;20104;-76
2021/11/30 08:14:03;;;;;;;4.22;1.20;;;23.00;99.90;;;;;;5044099;28;20462;-77
2021/11/30 08:16:30;;;;;;;3.30;1.17;;;23.00;99.90;;;;;;5051793;28;20034;-75
2021/11/30 08:18:58;;;;;;;2.70;1.00;;;23.00;99.90;;;;;;5044822;28;20029;-76
2021/11/30 08:21:25;;;;;;;5.57;1.00;;;23.00;99.90;;;;;;5039042;28;20472;-76
2021/11/30 08:23:52;;;;;;;3.45;1.35;;;23.10;99.90;;;;;;5048164;28;20425;-75
2021/11/30 08:26:20;;;;;;;1.73;0.50;;;23.00;99.90;;;;;;5047046;28;20083;-75
2021/11/30 08:28:47;;;;;;;3.40;0.90;;;23.00;99.90;;;;;;5043537;28;20029;-78
2021/11/30 08:31:15;;;;;;;2.05;0.60;;;22.90;99.90;;;;;;5046881;28;20048;-75
2021/11/30 08:33:42;;;;;;;5.32;0.55;;;23.00;99.90;;;;;;5046571;28;20029;-81
2021/11/30 08:36:10;;;;;;;2.28;0.43;;;22.90;99.90;;;;;;5047061;28;20025;-81
2021/11/30 08:38:37;;;;;;;0.73;0.40;;;22.90;99.90;;;;;;5049872;28;20110;-79
2021/11/30 08:41:05;;;;;;;1.00;0.40;;;22.70;99.90;;;;;;5045357;28;20033;-80
2021/11/30 08:43:33;;;;;;;0.98;0.25;;;22.70;99.90;;;;;;5044662;28;20040;-80
2021/11/30 08:46:00;;;;;;;1.20;0.50;;;22.60;99.90;;;;;;5040041;28;20036;-80
2021/11/30 08:48:28;;;;;;;0.95;0.35;;;22.50;99.90;;;;;;5050758;28;20056;-77
2021/11/30 08:50:59;;;;;;;0.43;0.30;;;22.40;99.90;;;;;;5042718;28;20435;-78
2021/11/30 08:53:27;;;;;;;0.30;0.20;;;22.40;99.90;;;;;;5055638;28;20349;-81
2021/11/30 08:55:54;;;;;;;0.50;0.40;;;22.30;99.90;;;;;;5050219;28;20178;-77
2021/11/30 08:58:23;;;;;;;0.57;0.28;;;22.30;99.90;;;;;;5046135;28;20067;-76
2021/11/30 09:00:50;;;;;;;2.28;0.47;;;22.30;99.90;;;;;;5047065;28;20055;-76
2021/11/30 09:03:17;;;;;;;0.57;0.20;;;22.30;99.90;;;;;;5045199;28;20025;-80
2021/11/30 09:05:45;;;;;;;0.40;0.20;;;22.20;99.90;;;;;;5044535;28;20033;-81
2021/11/30 09:08:12;;;;;;;0.98;0.28;;;22.20;99.90;;;;;;5046051;28;20025;-76
2021/11/30 09:10:41;;;;;;;0.45;0.30;;;22.10;99.90;;;;;;5047090;28;20042;-83
2021/11/30 09:13:09;;;;;;;0.50;0.20;;;22.00;99.90;;;;;;5037313;28;20155;-77
2021/11/30 09:15:38;;;;;;;0.30;0.20;;;21.90;99.90;;;;;;5051271;28;20021;-76
2021/11/30 09:18:06;;;;;;;1.55;0.30;;;21.80;99.90;;;;;;5040280;28;20602;-80
2021/11/30 09:20:34;;;;;;;1.00;0.38;;;21.80;99.90;;;;;;5050009;28;20023;-76
2021/11/30 09:23:01;;;;;;;1.33;0.70;;;21.80;99.90;;;;;;5037328;28;20033;-77
2021/11/30 09:25:29;;;;;;;0.93;0.40;;;21.70;99.90;;;;;;5045897;28;20029;-74
2021/11/30 09:27:58;;;;;;;1.38;0.40;;;21.70;99.90;;;;;;5037447;28;20037;-75
2021/11/30 09:30:28;;;;;;;0.28;0.20;;;21.70;99.90;;;;;;5040032;28;20468;-76
2021/11/30 09:32:56;;;;;;;0.30;0.20;;;21.70;99.90;;;;;;5037835;28;20020;-76
2021/11/30 09:35:25;;;;;;;0.98;0.30;;;21.80;99.90;;;;;;5047683;28;20036;-76
2021/11/30 09:37:54;;;;;;;0.88;0.20;;;21.70;99.90;;;;;;5037229;28;20039;-78
2021/11/30 09:40:25;;;;;;;1.48;0.20;;;21.60;99.90;;;;;;5044651;28;20032;-76
2021/11/30 09:42:53;;;;;;;1.23;0.50;;;21.60;99.90;;;;;;5048185;28;20028;-76
2021/11/30 09:45:23;;;;;;;1.13;0.50;;;21.60;99.90;;;;;;5043284;28;20025;-78
2021/11/30 09:47:51;;;;;;;1.00;0.28;;;21.60;99.90;;;;;;5045988;28;20099;-77
2021/11/30 09:50:21;;;;;;;1.60;0.93;;;21.60;99.90;;;;;;5049180;28;20096;-77
2021/11/30 09:52:57;;;;;;;0.75;0.32;;;21.60;99.90;;;;;;5049869;28;20016;-77
2021/11/30 09:55:26;;;;;;;0.90;0.40;;;21.70;99.90;;;;;;5043876;28;20063;-77
2021/11/30 09:57:54;;;;;;;1.33;0.40;;;21.70;99.90;;;;;;5039002;28;20067;-77
2021/11/30 10:00:23;;;;;;;0.75;0.40;;;21.80;99.90;;;;;;5048254;28;20090;-77
2021/11/30 10:02:54;;;;;;;1.65;0.40;;;21.80;99.90;;;;;;5044380;28;20021;-76
2021/11/30 10:05:22;;;;;;;0.25;0.17;;;21.90;99.90;;;;;;5043797;28;20058;-77
2021/11/30 10:07:51;;;;;;;0.65;0.30;;;21.80;99.90;;;;;;5041136;28;20522;-77
2021/11/30 10:10:25;;;;;;;1.95;0.40;;;21.80;99.90;;;;;;5041171;28;20035;-77
2021/11/30 10:13:10;;;;;;;1.52;0.40;;;21.80;99.90;;;;;;5039588;28;20025;-77
2021/11/30 10:15:47;;;;;;;1.00;0.40;;;21.80;99.90;;;;;;5045024;28;20459;-78
2021/11/30 10:18:24;;;;;;;1.27;0.63;;;21.80;99.90;;;;;;5048163;28;20495;-80
2021/11/30 10:21:09;;;;;;;2.47;0.50;;;21.80;99.90;;;;;;5044781;28;20486;-76
2021/11/30 10:23:51;;;;;;;0.65;0.40;;;21.70;99.90;;;;;;5046183;28;20037;-80
2021/11/30 10:26:22;;;;;;;0.77;0.30;;;21.60;99.90;;;;;;5039492;28;20418;-77
2021/11/30 10:28:59;;;;;;;0.50;0.30;;;21.50;99.90;;;;;;5038152;28;20021;-79
2021/11/30 10:31:34;;;;;;;2.70;0.60;;;21.50;99.90;;;;;;5038656;28;20464;-81
2021/11/30 10:34:11;;;;;;;1.13;0.50;;;21.50;99.90;;;;;;5046718;28;20028;-80
2021/11/30 10:37:05;;;;;;;2.60;0.43;;;21.30;99.90;;;;;;5056966;28;20037;-76
2021/11/30 10:39:37;;;;;;;1.10;0.38;;;21.30;99.90;;;;;;5038846;28;20694;-77
2021/11/30 10:42:25;;;;;;;0.40;0.40;;;21.30;99.90;;;;;;5045266;28;20386;-77
2021/11/30 10:44:57;;;;;;;0.82;0.38;;;21.20;99.90;;;;;;5034830;28;20030;-77
2021/11/30 10:47:31;;;;;;;1.98;0.40;;;21.10;99.90;;;;;;5045527;28;20072;-76
2021/11/30 10:50:09;;;;;;;1.05;0.40;;;21.10;99.90;;;;;;5046659;28;20540;-78
2021/11/30 10:52:37;;;;;;;0.80;0.32;;;21.10;99.90;;;;;;5040886;28;20052;-77
2021/11/30 10:55:14;;;;;;;0.88;0.40;;;21.10;99.90;;;;;;5040239;28;20021;-76
2021/11/30 10:57:43;;;;;;;3.13;0.30;;;21.00;99.90;;;;;;5042541;28;20428;-76
2021/11/30 11:00:19;;;;;;;0.70;0.30;;;21.00;99.90;;;;;;5047127;28;20037;-76
2021/11/30 11:03:17;;;;;;;1.90;0.30;;;21.00;99.90;;;;;;5045872;28;20021;-76
2021/11/30 11:05:43;;;;;;;0.20;0.15;;;20.90;99.90;;;;;;5036798;28;20045;-76
2021/11/30 11:08:13;;;;;;;2.70;0.57;;;20.90;99.90;;;;;;5041388;28;20025;-76
2021/11/30 11:10:48;;;;;;;3.00;0.30;;;20.90;99.90;;;;;;5033439;28;20116;-76
2021/11/30 11:13:35;;;;;;;1.42;0.28;;;20.90;99.90;;;;;;5041471;28;20040;-76
2021/11/30 11:16:08;;;;;;;0.60;0.32;;;20.80;99.90;;;;;;5047920;28;20134;-75
2021/11/30 11:18:38;;;;;;;3.70;0.40;;;20.90;99.90;;;;;;5037293;28;20022;-77
2021/11/30 11:21:29;;;;;;;1.20;0.35;;;20.80;99.90;;;;;;5043330;28;20036;-78
2021/11/30 11:24:25;;;;;;;1.50;0.60;;;20.90;99.90;;;;;;5043783;28;20041;-76
2021/11/30 11:26:54;;;;;;;1.67;0.50;;;20.90;99.90;;;;;;5038666;28;20543;-75
2021/11/30 11:29:27;;;;;;;1.20;0.80;;;20.90;99.90;;;;;;5040496;28;20485;-76
2021/11/30 11:31:59;;;;;;;1.83;0.77;;;20.90;99.90;;;;;;5032208;28;20176;-76
2021/11/30 11:34:31;;;;;;;2.70;1.58;;;20.90;99.90;;;;;;5051155;28;20104;-74
2021/11/30 11:37:01;;;;;;;1.83;0.90;;;20.90;99.90;;;;;;5047073;28;20017;-75
2021/11/30 11:39:30;;;;;;;2.95;1.60;;;20.90;99.90;;;;;;5046617;28;20116;-76
2021/11/30 11:42:00;;;;;;;2.25;1.10;;;20.90;99.90;;;;;;5047373;28;20025;-78
2021/11/30 11:44:28;;;;;;;2.08;1.20;;;20.90;99.90;;;;;;5044463;28;20129;-76
2021/11/30 11:47:01;;;;;;;3.45;1.75;;;20.80;99.90;;;;;;5036237;28;20022;-79
2021/11/30 11:49:33;;;;;;;2.45;1.80;;;20.90;99.90;;;;;;5046504;28;20031;-76
2021/11/30 11:52:00;;;;;;;3.00;1.38;;;20.90;99.90;;;;;;5041557;28;20104;-74
2021/11/30 11:54:29;;;;;;;5.45;2.05;;;20.90;99.90;;;;;;5043647;28;20104;-76
2021/11/30 11:57:07;;;;;;;3.00;1.50;;;20.90;99.90;;;;;;5043121;28;20779;-75
2021/11/30 11:59:37;;;;;;;4.35;1.90;;;20.90;99.90;;;;;;5044297;28;20074;-77
2021/11/30 12:02:21;;;;;;;4.22;1.55;;;20.90;99.90;;;;;;5039098;28;20032;-80
2021/11/30 12:04:54;;;;;;;2.70;1.30;;;20.90;99.90;;;;;;5034528;28;20120;-77
2021/11/30 12:07:27;;;;;;;4.28;1.50;;;20.90;99.90;;;;;;5037424;28;20020;-77
2021/11/30 12:10:20;;;;;;;3.00;1.52;;;20.90;99.90;;;;;;5047985;28;20029;-77
2021/11/30 12:13:00;;;;;;;2.33;1.48;;;20.90;99.90;;;;;;5051540;28;20033;-77
2021/11/30 12:16:05;;;;;;;3.13;2.03;;;20.80;99.90;;;;;;5054293;28;20499;-76
2021/11/30 12:18:34;;;;;;;4.00;2.05;;;20.80;99.90;;;;;;5048413;28;20021;-76
2021/11/30 12:21:09;;;;;;;4.55;1.90;;;20.80;99.90;;;;;;5041470;28;20108;-76
2021/11/30 12:23:37;;;;;;;4.88;2.03;;;20.80;99.90;;;;;;5045463;28;20033;-79
2021/11/30 12:26:16;;;;;;;3.05;2.08;;;20.80;99.90;;;;;;5046578;28;20041;-77
2021/11/30 12:28:43;;;;;;;2.83;1.48;;;20.80;99.90;;;;;;5050427;28;20084;-80
2021/11/30 12:31:30;;;;;;;2.75;1.63;;;20.80;99.90;;;;;;5050653;28;20060;-77
2021/11/30 12:33:58;;;;;;;3.75;1.75;;;20.90;99.90;;;;;;5042471;28;20033;-79
2021/11/30 12:36:41;;;;;;;3.95;1.92;;;20.90;99.90;;;;;;5046844;28;20053;-79
2021/11/30 12:39:11;;;;;;;6.30;2.15;;;20.90;99.90;;;;;;5027836;28;20037;-76
2021/11/30 12:41:43;;;;;;;3.13;1.63;;;20.90;99.90;;;;;;5044999;28;20091;-74
2021/11/30 12:44:22;;;;;;;5.18;2.03;;;20.90;99.90;;;;;;5041453;28;20060;-77
2021/11/30 12:46:56;;;;;;;4.25;2.20;;;20.90;99.90;;;;;;5039641;28;20029;-74
2021/11/30 12:49:28;;;;;;;3.50;2.25;;;20.90;99.90;;;;;;5042334;28;20388;-75
2021/11/30 12:52:21;;;;;;;4.70;2.33;;;20.90;99.90;;;;;;5036597;28;20029;-75
2021/11/30 12:55:15;;;;;;;3.17;1.67;;;20.90;99.90;;;;;;5043935;28;20027;-75
2021/11/30 12:57:44;;;;;;;2.50;1.42;;;20.90;99.90;;;;;;5047056;28;20055;-74
2021/11/30 13:00:29;;;;;;;1.95;1.27;;;20.90;99.90;;;;;;5044619;28;20028;-78
2021/11/30 13:03:22;;;;;;;2.97;1.25;;;20.90;99.90;;;;;;5044446;28;20179;-76
2021/11/30 13:05:57;;;;;;;1.83;1.40;;;20.90;99.90;;;;;;5047271;28;20480;-78
2021/11/30 13:08:24;;;;;;;2.03;1.13;;;20.90;99.90;;;;;;5042447;28;20053;-79
2021/11/30 13:10:53;;;;;;;3.60;1.35;;;20.90;99.90;;;;;;5039499;28;20029;-77
2021/11/30 13:13:25;;;;;;;5.50;1.80;;;20.80;99.90;;;;;;5047272;28;20384;-77
2021/11/30 13:15:54;;;;;;;3.40;1.05;;;20.90;99.90;;;;;;5036971;28;20053;-79